Time;durP1;ratioP1;P1;durP2;ratioP2;P2;SDS_P1;SDS_P2;PMS_P1;PMS_P2;Temp;Humidity;BMP_temperature;BMP_pressure;BME280_temperature;BME280_humidity;BME280_pressure;Samples;Min_cycle;Max_cycle;Signal;HPM_P1;HPM_P2
2023/04/16 00:00:12;;;;;;;0.70;0.70;;;;;;;;;;5081525;28;20178;-83
2023/04/16 00:02:38;;;;;;;0.70;0.70;;;;;;;;;;5081027;28;20174;-86
2023/04/16 00:05:04;;;;;;;0.60;0.60;;;;;;;;;;5080521;28;20609;-85
2023/04/16 00:07:30;;;;;;;0.63;0.63;;;;;;;;;;5080827;28;20179;-85
2023/04/16 00:09:56;;;;;;;0.60;0.60;;;;;;;;;;5079998;28;20822;-86
2023/04/16 00:12:22;;;;;;;0.77;0.77;;;;;;;;;;5079336;28;20165;-85
2023/04/16 00:14:48;;;;;;;0.77;0.77;;;;;;;;;;5079029;28;20326;-86
2023/04/16 00:17:14;;;;;;;0.60;0.60;;;;;;;;;;5078699;28;20178;-83
2023/04/16 00:19:40;;;;;;;0.60;0.60;;;;;;;;;;5077893;28;20281;-85
2023/04/16 00:22:06;;;;;;;0.50;0.50;;;;;;;;;;5078454;28;20637;-85
2023/04/16 00:24:32;;;;;;;0.70;0.70;;;;;;;;;;5079229;28;20198;-84
2023/04/16 00:26:58;;;;;;;0.60;0.60;;;;;;;;;;5079037;28;20174;-84
2023/04/16 00:29:27;;;;;;;0.60;0.60;;;;;;;;;;5081201;28;20213;-84
2023/04/16 00:31:53;;;;;;;0.73;0.73;;;;;;;;;;5077546;28;20189;-85
2023/04/16 00:34:19;;;;;;;0.70;0.70;;;;;;;;;;5077290;28;20258;-85
2023/04/16 00:36:45;;;;;;;0.70;0.70;;;;;;;;;;5078431;28;20193;-84
2023/04/16 00:39:11;;;;;;;0.63;0.63;;;;;;;;;;5078598;28;20552;-84
2023/04/16 00:41:37;;;;;;;0.60;0.60;;;;;;;;;;5079565;28;20187;-86
2023/04/16 00:44:03;;;;;;;0.60;0.60;;;;;;;;;;5077722;28;20247;-85
2023/04/16 00:46:29;;;;;;;0.70;0.70;;;;;;;;;;5078003;28;20194;-85
2023/04/16 00:48:56;;;;;;;0.70;0.70;;;;;;;;;;5078299;28;20185;-86
2023/04/16 00:51:22;;;;;;;0.57;0.57;;;;;;;;;;5076203;28;20185;-86
2023/04/16 00:53:48;;;;;;;0.70;0.70;;;;;;;;;;5078437;28;20194;-86
2023/04/16 00:56:14;;;;;;;0.57;0.57;;;;;;;;;;5079201;28;20201;-85
2023/04/16 00:58:40;;;;;;;0.60;0.60;;;;;;;;;;5078677;28;20315;-84
2023/04/16 01:01:06;;;;;;;0.60;0.60;;;;;;;;;;5080448;28;20272;-85
2023/04/16 01:03:39;;;;;;;0.60;0.60;;;;;;;;;;5079131;28;20285;-84
2023/04/16 01:06:06;;;;;;;0.60;0.60;;;;;;;;;;5078776;28;20198;-85
2023/04/16 01:08:32;;;;;;;0.60;0.60;;;;;;;;;;5079264;28;20174;-85
2023/04/16 01:10:58;;;;;;;0.60;0.60;;;;;;;;;;5079935;28;20218;-85
2023/04/16 01:13:24;;;;;;;0.60;0.60;;;;;;;;;;5078256;28;20263;-86
2023/04/16 01:15:50;;;;;;;0.60;0.60;;;;;;;;;;5078336;28;20181;-85
2023/04/16 01:18:17;;;;;;;0.70;0.70;;;;;;;;;;5078916;28;20246;-86
2023/04/16 01:20:43;;;;;;;0.60;0.60;;;;;;;;;;5079975;28;20170;-85
2023/04/16 01:23:09;;;;;;;0.60;0.60;;;;;;;;;;5080402;28;20216;-84
2023/04/16 01:25:35;;;;;;;0.53;0.53;;;;;;;;;;5080058;28;20269;-83
2023/04/16 01:28:01;;;;;;;0.73;0.73;;;;;;;;;;5082309;28;20202;-85
2023/04/16 01:30:27;;;;;;;0.70;0.70;;;;;;;;;;5084152;28;20214;-84
2023/04/16 01:32:53;;;;;;;0.67;0.67;;;;;;;;;;5096923;28;20155;-84
2023/04/16 01:35:19;;;;;;;0.60;0.60;;;;;;;;;;5097823;28;20795;-85
2023/04/16 01:37:45;;;;;;;0.70;0.70;;;;;;;;;;5088424;28;20190;-85
2023/04/16 01:40:11;;;;;;;0.60;0.60;;;;;;;;;;5088767;28;20175;-86
2023/04/16 01:42:37;;;;;;;0.63;0.63;;;;;;;;;;5086824;28;20170;-84
2023/04/16 01:45:04;;;;;;;0.70;0.70;;;;;;;;;;5088115;28;20202;-85
2023/04/16 01:47:30;;;;;;;0.60;0.60;;;;;;;;;;5085516;28;20186;-84
2023/04/16 01:49:56;;;;;;;0.63;0.63;;;;;;;;;;5087642;28;20657;-84
2023/04/16 01:52:22;;;;;;;0.70;0.70;;;;;;;;;;5086174;28;20265;-84
2023/04/16 01:54:48;;;;;;;0.60;0.60;;;;;;;;;;5084525;28;20194;-85
2023/04/16 01:57:14;;;;;;;0.70;0.70;;;;;;;;;;5085557;28;20184;-84
2023/04/16 01:59:40;;;;;;;0.60;0.60;;;;;;;;;;5084849;28;20178;-84
2023/04/16 02:02:10;;;;;;;0.60;0.60;;;;;;;;;;5084456;28;20189;-85
2023/04/16 02:04:40;;;;;;;0.67;0.67;;;;;;;;;;5084756;28;20204;-84
2023/04/16 02:07:06;;;;;;;0.60;0.60;;;;;;;;;;5086206;28;20174;-85
2023/04/16 02:09:34;;;;;;;0.60;0.60;;;;;;;;;;5086567;28;20213;-83
2023/04/16 02:12:02;;;;;;;0.60;0.60;;;;;;;;;;5085045;28;20182;-85
2023/04/16 02:14:28;;;;;;;0.73;0.73;;;;;;;;;;5087114;28;20202;-84
2023/04/16 02:16:54;;;;;;;0.60;0.60;;;;;;;;;;5092531;28;20174;-85
2023/04/16 02:19:20;;;;;;;0.70;0.70;;;;;;;;;;5100010;28;20166;-83
2023/04/16 02:21:46;;;;;;;0.70;0.70;;;;;;;;;;5099836;28;20266;-86
2023/04/16 02:24:12;;;;;;;0.70;0.70;;;;;;;;;;5095665;28;20208;-82
2023/04/16 02:26:38;;;;;;;0.60;0.60;;;;;;;;;;5100249;28;20208;-83
2023/04/16 02:29:05;;;;;;;0.50;0.50;;;;;;;;;;5099896;28;20191;-82
2023/04/16 02:31:30;;;;;;;0.60;0.60;;;;;;;;;;5099628;28;20227;-83
2023/04/16 02:33:57;;;;;;;0.60;0.60;;;;;;;;;;5084615;28;20198;-84
2023/04/16 02:36:23;;;;;;;0.63;0.63;;;;;;;;;;5082238;28;20236;-84
2023/04/16 02:38:49;;;;;;;0.70;0.70;;;;;;;;;;5081364;28;20181;-84
2023/04/16 02:41:15;;;;;;;0.60;0.60;;;;;;;;;;5087017;28;20194;-85
2023/04/16 02:43:41;;;;;;;0.67;0.67;;;;;;;;;;5091017;28;20665;-85
2023/04/16 02:46:07;;;;;;;0.60;0.60;;;;;;;;;;5092860;28;20166;-85
2023/04/16 02:48:33;;;;;;;0.70;0.70;;;;;;;;;;5093203;28;20174;-85
2023/04/16 02:50:59;;;;;;;0.63;0.63;;;;;;;;;;5084932;28;20214;-84
2023/04/16 02:53:25;;;;;;;0.60;0.60;;;;;;;;;;5083040;28;20769;-85
2023/04/16 02:55:51;;;;;;;0.60;0.60;;;;;;;;;;5084127;28;20171;-84
2023/04/16 02:58:18;;;;;;;0.63;0.63;;;;;;;;;;5084697;28;20196;-84
2023/04/16 03:00:44;;;;;;;0.60;0.60;;;;;;;;;;5084430;28;20186;-84
2023/04/16 03:03:10;;;;;;;0.70;0.70;;;;;;;;;;5082013;28;20193;-84
2023/04/16 03:05:36;;;;;;;0.60;0.60;;;;;;;;;;5080632;28;20547;-84
2023/04/16 03:08:05;;;;;;;0.60;0.60;;;;;;;;;;5079851;28;20228;-85
2023/04/16 03:10:32;;;;;;;0.63;0.63;;;;;;;;;;5078803;28;20234;-85
2023/04/16 03:12:58;;;;;;;0.60;0.60;;;;;;;;;;5077315;28;20175;-85
2023/04/16 03:15:24;;;;;;;0.70;0.70;;;;;;;;;;5077873;28;20178;-85
2023/04/16 03:17:50;;;;;;;0.67;0.67;;;;;;;;;;5079721;28;20232;-86
2023/04/16 03:20:16;;;;;;;0.60;0.60;;;;;;;;;;5078479;28;20707;-85
2023/04/16 03:22:42;;;;;;;0.63;0.63;;;;;;;;;;5077133;28;20178;-86
2023/04/16 03:25:09;;;;;;;0.60;0.60;;;;;;;;;;5078359;28;20284;-85
2023/04/16 03:27:35;;;;;;;0.80;0.80;;;;;;;;;;5077598;28;20567;-86
2023/04/16 03:30:01;;;;;;;0.70;0.70;;;;;;;;;;5075895;28;20207;-84
2023/04/16 03:32:27;;;;;;;0.70;0.70;;;;;;;;;;5077691;28;20202;-85
2023/04/16 03:34:53;;;;;;;0.60;0.60;;;;;;;;;;5078114;28;20202;-85
2023/04/16 03:37:19;;;;;;;0.70;0.70;;;;;;;;;;5075832;28;20174;-85
2023/04/16 03:39:45;;;;;;;0.70;0.70;;;;;;;;;;5076568;28;20231;-86
2023/04/16 03:42:11;;;;;;;0.60;0.60;;;;;;;;;;5077746;28;20194;-84
2023/04/16 03:44:37;;;;;;;0.67;0.67;;;;;;;;;;5078000;28;20190;-85
2023/04/16 03:47:03;;;;;;;0.60;0.60;;;;;;;;;;5077626;28;20269;-85
2023/04/16 03:49:29;;;;;;;0.70;0.70;;;;;;;;;;5076829;28;20206;-85
2023/04/16 03:51:55;;;;;;;0.60;0.60;;;;;;;;;;5077506;28;20594;-85
2023/04/16 03:54:21;;;;;;;0.60;0.60;;;;;;;;;;5077227;28;20222;-85
2023/04/16 03:56:47;;;;;;;0.60;0.60;;;;;;;;;;5078412;28;20223;-85
2023/04/16 03:59:13;;;;;;;0.60;0.60;;;;;;;;;;5075986;28;20719;-86
2023/04/16 04:01:39;;;;;;;0.60;0.60;;;;;;;;;;5076601;28;20598;-84
2023/04/16 04:04:05;;;;;;;0.67;0.67;;;;;;;;;;5074900;28;20199;-85
2023/04/16 04:06:31;;;;;;;0.60;0.60;;;;;;;;;;5074739;28;20185;-85
2023/04/16 04:08:58;;;;;;;0.80;0.80;;;;;;;;;;5076211;28;20175;-85
2023/04/16 04:11:23;;;;;;;0.70;0.70;;;;;;;;;;5075400;28;20185;-85
2023/04/16 04:13:49;;;;;;;0.70;0.70;;;;;;;;;;5075628;28;20202;-85
2023/04/16 04:16:15;;;;;;;0.70;0.70;;;;;;;;;;5075786;28;20175;-85
2023/04/16 04:18:41;;;;;;;0.70;0.70;;;;;;;;;;5075094;28;20324;-85
2023/04/16 04:21:08;;;;;;;0.60;0.60;;;;;;;;;;5075627;28;20178;-85
2023/04/16 04:23:34;;;;;;;0.60;0.60;;;;;;;;;;5075954;28;20194;-85
2023/04/16 04:26:04;;;;;;;0.70;0.70;;;;;;;;;;5074987;28;20183;-84
2023/04/16 04:28:32;;;;;;;0.70;0.70;;;;;;;;;;5075255;28;20177;-84
2023/04/16 04:30:58;;;;;;;0.70;0.70;;;;;;;;;;5075253;28;20210;-85
2023/04/16 04:33:25;;;;;;;0.60;0.60;;;;;;;;;;5074708;28;20194;-85
2023/04/16 04:35:51;;;;;;;0.70;0.70;;;;;;;;;;5074465;28;20676;-85
2023/04/16 04:38:18;;;;;;;0.67;0.67;;;;;;;;;;5074625;28;20174;-85
2023/04/16 04:40:45;;;;;;;0.70;0.70;;;;;;;;;;5074558;28;20186;-85
2023/04/16 04:43:11;;;;;;;0.70;0.70;;;;;;;;;;5074142;28;20553;-85
2023/04/16 04:45:37;;;;;;;0.60;0.60;;;;;;;;;;5073550;28;20182;-86
2023/04/16 04:48:03;;;;;;;0.60;0.60;;;;;;;;;;5074870;28;20174;-85
2023/04/16 04:50:29;;;;;;;0.70;0.70;;;;;;;;;;5073734;28;20583;-84
2023/04/16 04:52:55;;;;;;;0.60;0.60;;;;;;;;;;5072798;28;20180;-86
2023/04/16 04:55:21;;;;;;;0.70;0.70;;;;;;;;;;5074505;28;20602;-84
2023/04/16 04:57:48;;;;;;;0.67;0.67;;;;;;;;;;5114955;22;20198;-82
2023/04/16 05:00:14;;;;;;;0.70;0.70;;;;;;;;;;5075825;28;20190;-82
2023/04/16 05:02:40;;;;;;;0.60;0.60;;;;;;;;;;5077511;28;20552;-83
2023/04/16 05:05:06;;;;;;;0.70;0.70;;;;;;;;;;5079770;28;20231;-82
2023/04/16 05:07:32;;;;;;;0.60;0.60;;;;;;;;;;5080701;28;20174;-80
2023/04/16 05:09:58;;;;;;;0.80;0.80;;;;;;;;;;5080759;28;20218;-82
2023/04/16 05:12:25;;;;;;;0.60;0.60;;;;;;;;;;5080354;28;20189;-80
2023/04/16 05:14:50;;;;;;;0.60;0.60;;;;;;;;;;5085159;28;20214;-79
2023/04/16 05:17:16;;;;;;;0.70;0.70;;;;;;;;;;5087101;28;20185;-78
2023/04/16 05:19:42;;;;;;;0.70;0.70;;;;;;;;;;5088863;28;20213;-79
2023/04/16 05:22:08;;;;;;;0.77;0.77;;;;;;;;;;5092061;28;20170;-81
2023/04/16 05:24:34;;;;;;;0.70;0.70;;;;;;;;;;5092591;28;20703;-79
2023/04/16 05:27:00;;;;;;;0.70;0.70;;;;;;;;;;5088236;28;20202;-79
2023/04/16 05:29:27;;;;;;;0.80;0.80;;;;;;;;;;5082840;28;20206;-79
2023/04/16 05:31:53;;;;;;;0.60;0.60;;;;;;;;;;5079148;28;20201;-80
2023/04/16 05:34:19;;;;;;;0.70;0.70;;;;;;;;;;5077305;28;20545;-80
2023/04/16 05:36:45;;;;;;;0.77;0.77;;;;;;;;;;5092095;28;20182;-78
2023/04/16 05:39:11;;;;;;;0.73;0.73;;;;;;;;;;5100399;28;20193;-78
2023/04/16 05:41:37;;;;;;;0.60;0.60;;;;;;;;;;5078131;28;20182;-81
2023/04/16 05:44:03;;;;;;;0.67;0.67;;;;;;;;;;5077315;28;20262;-80
2023/04/16 05:46:29;;;;;;;0.70;0.70;;;;;;;;;;5077427;28;20185;-80
2023/04/16 05:48:54;;;;;;;0.60;0.60;;;;;;;;;;5077068;28;20238;-81
2023/04/16 05:51:23;;;;;;;0.70;0.70;;;;;;;;;;5078136;28;20194;-80
2023/04/16 05:53:49;;;;;;;0.70;0.70;;;;;;;;;;5076458;28;20209;-80
2023/04/16 05:56:15;;;;;;;0.70;0.70;;;;;;;;;;5078098;28;20178;-79
2023/04/16 05:58:41;;;;;;;0.70;0.70;;;;;;;;;;5077536;28;20634;-80
2023/04/16 06:01:07;;;;;;;0.60;0.60;;;;;;;;;;5076932;28;20171;-80
2023/04/16 06:03:33;;;;;;;0.70;0.70;;;;;;;;;;5077107;28;20233;-78
2023/04/16 06:05:58;;;;;;;0.70;0.70;;;;;;;;;;5077546;28;20670;-79
2023/04/16 06:08:25;;;;;;;0.60;0.60;;;;;;;;;;5078038;28;20182;-80
2023/04/16 06:10:51;;;;;;;0.70;0.70;;;;;;;;;;5077889;28;20690;-79
2023/04/16 06:13:17;;;;;;;0.80;0.80;;;;;;;;;;5077515;28;20187;-79
2023/04/16 06:15:43;;;;;;;0.70;0.70;;;;;;;;;;5077947;28;20183;-80
2023/04/16 06:18:09;;;;;;;0.80;0.80;;;;;;;;;;5078093;28;20171;-80
2023/04/16 06:20:35;;;;;;;0.63;0.63;;;;;;;;;;5066778;28;20238;-79
2023/04/16 06:23:01;;;;;;;0.80;0.80;;;;;;;;;;5084777;28;20655;-79
2023/04/16 06:25:27;;;;;;;0.70;0.70;;;;;;;;;;5078813;28;20205;-80
2023/04/16 06:27:53;;;;;;;0.60;0.60;;;;;;;;;;5081068;28;20188;-82
2023/04/16 06:30:19;;;;;;;0.60;0.60;;;;;;;;;;5082485;28;20202;-80
2023/04/16 06:32:45;;;;;;;0.60;0.60;;;;;;;;;;5080362;28;20191;-80
2023/04/16 06:35:11;;;;;;;0.67;0.67;;;;;;;;;;5078573;28;20766;-80
2023/04/16 06:37:37;;;;;;;0.70;0.70;;;;;;;;;;5078478;28;20170;-80
2023/04/16 06:40:03;;;;;;;0.70;0.70;;;;;;;;;;5077445;28;20173;-81
2023/04/16 06:42:29;;;;;;;0.73;0.73;;;;;;;;;;5079964;28;20234;-79
2023/04/16 06:44:55;;;;;;;0.70;0.70;;;;;;;;;;5071434;28;20725;-81
2023/04/16 06:47:21;;;;;;;0.67;0.67;;;;;;;;;;5059997;28;20275;-81
2023/04/16 06:49:47;;;;;;;0.60;0.60;;;;;;;;;;5081366;28;20210;-80
2023/04/16 06:52:13;;;;;;;0.67;0.67;;;;;;;;;;5063004;28;20712;-79
2023/04/16 06:54:39;;;;;;;0.80;0.80;;;;;;;;;;5043381;28;20231;-82
2023/04/16 06:57:05;;;;;;;0.60;0.60;;;;;;;;;;5086166;28;20183;-78
2023/04/16 06:59:31;;;;;;;0.70;0.70;;;;;;;;;;5076860;28;20933;-79
2023/04/16 07:01:57;;;;;;;0.70;0.70;;;;;;;;;;5085030;28;20324;-79
2023/04/16 07:04:23;;;;;;;0.70;0.70;;;;;;;;;;5078273;28;20236;-80
2023/04/16 07:06:49;;;;;;;0.70;0.70;;;;;;;;;;5077730;28;20221;-80
2023/04/16 07:09:16;;;;;;;0.70;0.70;;;;;;;;;;5077140;28;20222;-79
2023/04/16 07:11:43;;;;;;;0.63;0.63;;;;;;;;;;5062326;28;20194;-82
2023/04/16 07:14:09;;;;;;;0.70;0.70;;;;;;;;;;5061306;28;20198;-80
2023/04/16 07:16:36;;;;;;;0.70;0.70;;;;;;;;;;5076979;28;20202;-81
2023/04/16 07:19:02;;;;;;;0.70;0.70;;;;;;;;;;5075958;28;20183;-80
2023/04/16 07:21:28;;;;;;;0.70;0.70;;;;;;;;;;5076606;28;20213;-81
2023/04/16 07:23:54;;;;;;;0.67;0.67;;;;;;;;;;5075189;28;20199;-80
2023/04/16 07:26:20;;;;;;;0.70;0.70;;;;;;;;;;5076027;28;20229;-80
2023/04/16 07:28:46;;;;;;;0.70;0.70;;;;;;;;;;5074217;28;20179;-80
2023/04/16 07:31:12;;;;;;;0.70;0.70;;;;;;;;;;5073949;28;20635;-79
2023/04/16 07:33:38;;;;;;;0.70;0.70;;;;;;;;;;5056502;28;20199;-81
2023/04/16 07:36:04;;;;;;;0.63;0.63;;;;;;;;;;5077508;28;20179;-79
2023/04/16 07:38:30;;;;;;;0.70;0.70;;;;;;;;;;5075035;28;20171;-78
2023/04/16 07:40:56;;;;;;;0.70;0.70;;;;;;;;;;5076987;28;20219;-79
2023/04/16 07:43:22;;;;;;;0.80;0.80;;;;;;;;;;5074945;28;20259;-79
2023/04/16 07:45:48;;;;;;;0.70;0.70;;;;;;;;;;5076977;28;20179;-81
2023/04/16 07:48:14;;;;;;;0.70;0.70;;;;;;;;;;5076784;28;20178;-81
2023/04/16 07:50:42;;;;;;;0.63;0.63;;;;;;;;;;5082318;28;20213;-79
2023/04/16 07:53:08;;;;;;;0.67;0.67;;;;;;;;;;5091961;28;20206;-80
2023/04/16 07:55:34;;;;;;;0.70;0.70;;;;;;;;;;5091145;28;20246;-77
2023/04/16 07:58:01;;;;;;;0.77;0.77;;;;;;;;;;5086150;28;20217;-80
2023/04/16 08:00:27;;;;;;;0.70;0.70;;;;;;;;;;5086148;28;20261;-81
2023/04/16 08:02:53;;;;;;;0.70;0.70;;;;;;;;;;5059065;28;20586;-82
2023/04/16 08:05:19;;;;;;;0.70;0.70;;;;;;;;;;5069947;28;20167;-81
2023/04/16 08:07:45;;;;;;;0.70;0.70;;;;;;;;;;5085554;28;20223;-80
2023/04/16 08:10:11;;;;;;;0.70;0.70;;;;;;;;;;5090662;28;20202;-80
2023/04/16 08:12:38;;;;;;;0.63;0.63;;;;;;;;;;5085144;28;20174;-81
2023/04/16 08:15:04;;;;;;;0.70;0.70;;;;;;;;;;5081036;28;20207;-81
2023/04/16 08:17:30;;;;;;;0.60;0.60;;;;;;;;;;5080709;28;20175;-81
2023/04/16 08:19:56;;;;;;;0.60;0.60;;;;;;;;;;5080261;28;20240;-81
2023/04/16 08:22:22;;;;;;;0.60;0.60;;;;;;;;;;5080343;28;20175;-80
2023/04/16 08:24:48;;;;;;;0.70;0.70;;;;;;;;;;5082646;28;20623;-81
2023/04/16 08:27:15;;;;;;;0.70;0.70;;;;;;;;;;5080864;28;20178;-79
2023/04/16 08:29:40;;;;;;;0.63;0.63;;;;;;;;;;5064160;28;20207;-81
2023/04/16 08:32:08;;;;;;;0.67;0.67;;;;;;;;;;5066946;28;20175;-81
2023/04/16 08:34:34;;;;;;;0.73;0.73;;;;;;;;;;5071297;28;20498;-81
2023/04/16 08:37:00;;;;;;;0.60;0.60;;;;;;;;;;5068300;28;20179;-83
2023/04/16 08:39:26;;;;;;;0.60;0.60;;;;;;;;;;5079067;28;20193;-83
2023/04/16 08:41:53;;;;;;;0.60;0.60;;;;;;;;;;5079024;28;20175;-82
2023/04/16 08:44:20;;;;;;;0.67;0.67;;;;;;;;;;5082141;28;20205;-82
2023/04/16 08:46:47;;;;;;;0.60;0.60;;;;;;;;;;5081535;28;20198;-81
2023/04/16 08:49:19;;;;;;;0.63;0.63;;;;;;;;;;5084516;28;20186;-83
2023/04/16 08:51:52;;;;;;;0.57;0.57;;;;;;;;;;5081527;28;20177;-83
2023/04/16 08:54:24;;;;;;;0.67;0.67;;;;;;;;;;5076674;28;20190;-83
2023/04/16 08:56:51;;;;;;;0.70;0.70;;;;;;;;;;5073106;28;20170;-83
2023/04/16 08:59:17;;;;;;;0.73;0.73;;;;;;;;;;5082109;28;20190;-82
2023/04/16 09:01:44;;;;;;;0.60;0.60;;;;;;;;;;5084968;28;20174;-83
2023/04/16 09:04:10;;;;;;;0.70;0.70;;;;;;;;;;5084594;28;20198;-85
2023/04/16 09:06:36;;;;;;;0.67;0.67;;;;;;;;;;5080260;28;20539;-84
2023/04/16 09:09:04;;;;;;;0.60;0.60;;;;;;;;;;5077624;28;20171;-84
2023/04/16 09:11:30;;;;;;;0.67;0.67;;;;;;;;;;5059364;28;20695;-83
2023/04/16 09:13:56;;;;;;;0.70;0.70;;;;;;;;;;5076081;28;20204;-83
2023/04/16 09:16:22;;;;;;;0.60;0.60;;;;;;;;;;5074642;28;20598;-82
2023/04/16 09:18:49;;;;;;;0.67;0.67;;;;;;;;;;5068030;28;20258;-82
2023/04/16 09:21:15;;;;;;;0.60;0.60;;;;;;;;;;5068075;28;20179;-83
2023/04/16 09:23:41;;;;;;;0.60;0.60;;;;;;;;;;5067653;28;20199;-84
2023/04/16 09:26:07;;;;;;;0.67;0.67;;;;;;;;;;5080432;28;20179;-83
2023/04/16 09:28:43;;;;;;;0.60;0.60;;;;;;;;;;5070312;28;20184;-82
2023/04/16 09:31:13;;;;;;;0.60;0.60;;;;;;;;;;5057522;28;20215;-82
2023/04/16 09:33:39;;;;;;;0.70;0.70;;;;;;;;;;5068009;28;20209;-83
2023/04/16 09:36:06;;;;;;;0.70;0.70;;;;;;;;;;5066000;28;20171;-83
2023/04/16 09:38:51;;;;;;;0.80;0.80;;;;;;;;;;5075493;28;20187;-82
2023/04/16 09:41:17;;;;;;;0.70;0.70;;;;;;;;;;5076322;28;20265;-83
2023/04/16 09:43:58;;;;;;;0.70;0.70;;;;;;;;;;5078809;28;20206;-86
2023/04/16 09:46:25;;;;;;;0.60;0.60;;;;;;;;;;5078586;28;20174;-83
2023/04/16 09:48:51;;;;;;;0.60;0.60;;;;;;;;;;5082516;28;20182;-84
2023/04/16 09:51:17;;;;;;;0.67;0.67;;;;;;;;;;5077203;28;20214;-84
2023/04/16 09:53:43;;;;;;;0.70;0.70;;;;;;;;;;5077483;28;20657;-83
2023/04/16 09:56:11;;;;;;;0.60;0.60;;;;;;;;;;5074036;28;20224;-84
2023/04/16 09:58:37;;;;;;;0.70;0.70;;;;;;;;;;5057767;28;20187;-85
2023/04/16 10:01:06;;;;;;;0.60;0.60;;;;;;;;;;5071461;28;20171;-83
2023/04/16 10:03:33;;;;;;;0.70;0.70;;;;;;;;;;5071281;28;20194;-83
2023/04/16 10:06:08;;;;;;;0.70;0.70;;;;;;;;;;5054147;28;20206;-85
2023/04/16 10:08:35;;;;;;;0.70;0.70;;;;;;;;;;5072518;28;20207;-86
2023/04/16 10:11:01;;;;;;;0.60;0.60;;;;;;;;;;5078575;28;20225;-84
2023/04/16 10:13:29;;;;;;;0.70;0.70;;;;;;;;;;5075396;28;20183;-84
2023/04/16 10:15:56;;;;;;;0.60;0.60;;;;;;;;;;5077852;28;20217;-83
2023/04/16 10:18:22;;;;;;;0.70;0.70;;;;;;;;;;5081828;28;20503;-83
2023/04/16 10:20:49;;;;;;;0.60;0.60;;;;;;;;;;5071257;28;20175;-84
2023/04/16 10:23:15;;;;;;;0.70;0.70;;;;;;;;;;5073401;28;20210;-83
2023/04/16 10:25:42;;;;;;;0.57;0.57;;;;;;;;;;5074025;28;20180;-83
2023/04/16 10:28:09;;;;;;;0.70;0.70;;;;;;;;;;5077618;28;20183;-83
2023/04/16 10:30:36;;;;;;;0.70;0.70;;;;;;;;;;5075563;28;20246;-84
2023/04/16 10:33:03;;;;;;;0.70;0.70;;;;;;;;;;5080276;28;20190;-83
2023/04/16 10:35:30;;;;;;;0.70;0.70;;;;;;;;;;5080081;28;20202;-85
2023/04/16 10:38:16;;;;;;;0.70;0.70;;;;;;;;;;5084310;28;20181;-85
2023/04/16 10:40:44;;;;;;;0.70;0.70;;;;;;;;;;5066332;28;20193;-85
2023/04/16 10:43:16;;;;;;;0.60;0.60;;;;;;;;;;5079600;28;20206;-84
2023/04/16 10:45:42;;;;;;;0.60;0.60;;;;;;;;;;5082428;28;20170;-83
2023/04/16 10:48:08;;;;;;;0.70;0.70;;;;;;;;;;5083541;28;20177;-82
2023/04/16 10:50:38;;;;;;;0.73;0.73;;;;;;;;;;5079645;28;20210;-84
2023/04/16 10:53:19;;;;;;;0.70;0.70;;;;;;;;;;5086534;28;20170;-84
2023/04/16 10:55:57;;;;;;;0.60;0.60;;;;;;;;;;5088677;28;20941;-80
2023/04/16 10:58:30;;;;;;;0.60;0.60;;;;;;;;;;5088203;28;20190;-83
2023/04/16 11:01:00;;;;;;;0.60;0.60;;;;;;;;;;5095947;28;20186;-82
2023/04/16 11:03:32;;;;;;;0.60;0.60;;;;;;;;;;5095753;28;20213;-83
2023/04/16 11:06:23;;;;;;;0.60;0.60;;;;;;;;;;5091273;28;20716;-82
2023/04/16 11:08:51;;;;;;;0.60;0.60;;;;;;;;;;5082278;28;20205;-85
2023/04/16 11:11:17;;;;;;;0.60;0.60;;;;;;;;;;5082392;28;20210;-85
2023/04/16 11:13:47;;;;;;;0.70;0.70;;;;;;;;;;5083513;28;20197;-85
2023/04/16 11:16:13;;;;;;;0.60;0.60;;;;;;;;;;5074486;28;20175;-84
2023/04/16 11:18:40;;;;;;;0.50;0.50;;;;;;;;;;5072643;28;20178;-85
2023/04/16 11:21:10;;;;;;;0.67;0.67;;;;;;;;;;5074785;28;20190;-84
2023/04/16 11:23:49;;;;;;;0.70;0.70;;;;;;;;;;5078455;28;20222;-85
2023/04/16 11:26:25;;;;;;;0.60;0.60;;;;;;;;;;5069726;28;20182;-84
2023/04/16 11:28:51;;;;;;;0.57;0.57;;;;;;;;;;5074199;28;20179;-83
2023/04/16 11:31:17;;;;;;;0.60;0.60;;;;;;;;;;5070506;28;20289;-84
2023/04/16 11:33:43;;;;;;;0.50;0.50;;;;;;;;;;5070848;28;20214;-85
2023/04/16 11:36:09;;;;;;;0.60;0.60;;;;;;;;;;5071124;28;20203;-85
2023/04/16 11:38:36;;;;;;;0.70;0.70;;;;;;;;;;5066112;28;20167;-84
2023/04/16 11:41:02;;;;;;;0.80;0.80;;;;;;;;;;5071322;28;20178;-84
2023/04/16 11:43:28;;;;;;;0.67;0.67;;;;;;;;;;5070868;28;20197;-85
2023/04/16 11:45:57;;;;;;;0.70;0.70;;;;;;;;;;5071699;28;20207;-85
2023/04/16 11:48:23;;;;;;;0.60;0.60;;;;;;;;;;5071465;28;20195;-85
2023/04/16 11:50:56;;;;;;;0.60;0.60;;;;;;;;;;5071312;28;20203;-84
2023/04/16 11:53:22;;;;;;;0.60;0.60;;;;;;;;;;5071455;28;20206;-86
2023/04/16 11:55:48;;;;;;;0.80;0.80;;;;;;;;;;5071915;28;20175;-84
2023/04/16 11:58:15;;;;;;;0.67;0.67;;;;;;;;;;5071199;28;20213;-85
2023/04/16 12:00:41;;;;;;;0.60;0.60;;;;;;;;;;5070862;28;20175;-86
2023/04/16 12:03:07;;;;;;;0.70;0.70;;;;;;;;;;5061575;28;20209;-84
2023/04/16 12:05:37;;;;;;;0.70;0.70;;;;;;;;;;5061312;28;20634;-85
2023/04/16 12:08:07;;;;;;;0.70;0.70;;;;;;;;;;5061724;28;20190;-85
2023/04/16 12:10:34;;;;;;;0.63;0.63;;;;;;;;;;5072718;28;20210;-84
2023/04/16 12:13:14;;;;;;;0.70;0.70;;;;;;;;;;5071840;28;20187;-86
2023/04/16 12:15:47;;;;;;;0.77;0.77;;;;;;;;;;5054018;28;20171;-85
2023/04/16 12:18:14;;;;;;;0.70;0.70;;;;;;;;;;5058232;28;20179;-85
2023/04/16 12:20:42;;;;;;;0.70;0.70;;;;;;;;;;5065699;28;20194;-85
2023/04/16 12:23:09;;;;;;;0.57;0.57;;;;;;;;;;5059576;28;20198;-85
2023/04/16 12:25:35;;;;;;;0.60;0.60;;;;;;;;;;5069843;28;20589;-86
2023/04/16 12:28:02;;;;;;;0.60;0.60;;;;;;;;;;5077483;28;20171;-86
2023/04/16 12:30:29;;;;;;;0.60;0.60;;;;;;;;;;5092663;28;20205;-86
2023/04/16 12:33:14;;;;;;;0.60;0.60;;;;;;;;;;5088775;28;20229;-87
2023/04/16 12:35:42;;;;;;;0.60;0.60;;;;;;;;;;5087787;28;20147;-86
2023/04/16 12:38:08;;;;;;;0.70;0.70;;;;;;;;;;5087768;28;20170;-89
2023/04/16 12:40:34;;;;;;;0.60;0.60;;;;;;;;;;5090955;28;20210;-86
2023/04/16 12:43:00;;;;;;;0.63;0.63;;;;;;;;;;5076223;28;20190;-87
2023/04/16 12:45:26;;;;;;;0.70;0.70;;;;;;;;;;5071900;28;20186;-87
2023/04/16 12:47:52;;;;;;;0.60;0.60;;;;;;;;;;5078534;28;20183;-87
2023/04/16 12:50:18;;;;;;;0.60;0.60;;;;;;;;;;5075576;28;20251;-87
2023/04/16 12:52:44;;;;;;;0.60;0.60;;;;;;;;;;5069335;28;20539;-88
2023/04/16 12:55:11;;;;;;;0.70;0.70;;;;;;;;;;5066487;28;20199;-87
2023/04/16 12:57:37;;;;;;;0.60;0.60;;;;;;;;;;5058088;28;20182;-85
2023/04/16 13:00:05;;;;;;;0.70;0.70;;;;;;;;;;5074938;28;20193;-87
2023/04/16 13:02:31;;;;;;;0.60;0.60;;;;;;;;;;5064420;28;20182;-86
2023/04/16 13:04:57;;;;;;;0.60;0.60;;;;;;;;;;5056095;28;20895;-87
2023/04/16 13:07:25;;;;;;;0.70;0.70;;;;;;;;;;5064330;28;20193;-85
2023/04/16 13:09:51;;;;;;;0.70;0.70;;;;;;;;;;5057765;28;20745;-85
2023/04/16 13:12:17;;;;;;;0.60;0.60;;;;;;;;;;5055668;28;20187;-85
2023/04/16 13:14:44;;;;;;;0.60;0.60;;;;;;;;;;5058729;28;20333;-87
2023/04/16 13:17:10;;;;;;;0.60;0.60;;;;;;;;;;5066816;28;20479;-86
2023/04/16 13:19:36;;;;;;;0.50;0.50;;;;;;;;;;5071546;28;20194;-86
2023/04/16 13:22:02;;;;;;;0.63;0.63;;;;;;;;;;5064314;28;20186;-86
2023/04/16 13:24:29;;;;;;;0.70;0.70;;;;;;;;;;5079897;28;20661;-86
2023/04/16 13:26:55;;;;;;;0.50;0.50;;;;;;;;;;5075733;28;20209;-85
2023/04/16 13:29:22;;;;;;;0.60;0.60;;;;;;;;;;5070418;28;20619;-85
2023/04/16 13:31:48;;;;;;;0.60;0.60;;;;;;;;;;5076809;28;20179;-87
2023/04/16 13:34:14;;;;;;;0.60;0.60;;;;;;;;;;5068858;28;20206;-87
2023/04/16 13:36:40;;;;;;;0.60;0.60;;;;;;;;;;5066554;28;20190;-86
2023/04/16 13:39:10;;;;;;;0.50;0.50;;;;;;;;;;5081038;28;20183;-86
2023/04/16 13:41:39;;;;;;;0.70;0.70;;;;;;;;;;5081510;28;20178;-86
2023/04/16 13:44:06;;;;;;;0.70;0.70;;;;;;;;;;5065910;28;20198;-86
2023/04/16 13:46:32;;;;;;;0.60;0.60;;;;;;;;;;5080304;28;20587;-87
2023/04/16 13:48:58;;;;;;;0.70;0.70;;;;;;;;;;5081853;28;20178;-87
2023/04/16 13:51:24;;;;;;;0.60;0.60;;;;;;;;;;5098899;28;20214;-88
2023/04/16 13:53:50;;;;;;;0.63;0.63;;;;;;;;;;5084981;28;20218;-86
2023/04/16 13:56:16;;;;;;;0.60;0.60;;;;;;;;;;5099399;28;20238;-85
2023/04/16 13:58:42;;;;;;;0.70;0.70;;;;;;;;;;5092678;28;20206;-87
2023/04/16 14:01:09;;;;;;;0.60;0.60;;;;;;;;;;5072956;28;20178;-86
2023/04/16 14:03:37;;;;;;;0.70;0.70;;;;;;;;;;5067472;28;20215;-86
2023/04/16 14:06:03;;;;;;;0.70;0.70;;;;;;;;;;5066624;28;20216;-85
2023/04/16 14:08:29;;;;;;;0.53;0.53;;;;;;;;;;5085560;28;20707;-86
2023/04/16 14:10:55;;;;;;;0.60;0.60;;;;;;;;;;5083752;28;20681;-85
2023/04/16 14:13:21;;;;;;;0.57;0.57;;;;;;;;;;5084549;28;20252;-86
2023/04/16 14:15:47;;;;;;;0.70;0.70;;;;;;;;;;5084394;28;20171;-87
2023/04/16 14:18:13;;;;;;;0.60;0.60;;;;;;;;;;5085699;28;20171;-85
2023/04/16 14:20:40;;;;;;;0.70;0.70;;;;;;;;;;5085274;28;20201;-86
2023/04/16 14:23:06;;;;;;;0.70;0.70;;;;;;;;;;5082802;28;20200;-86
2023/04/16 14:25:32;;;;;;;0.50;0.50;;;;;;;;;;5078003;28;20187;-86
2023/04/16 14:27:59;;;;;;;0.70;0.70;;;;;;;;;;5081568;28;20189;-85
2023/04/16 14:30:25;;;;;;;0.60;0.60;;;;;;;;;;5081696;28;20257;-85
2023/04/16 14:32:51;;;;;;;0.60;0.60;;;;;;;;;;5070192;28;20255;-85
2023/04/16 14:35:17;;;;;;;0.60;0.60;;;;;;;;;;5076199;28;20189;-85
2023/04/16 14:37:44;;;;;;;0.60;0.60;;;;;;;;;;5078173;28;20182;-84
2023/04/16 14:40:11;;;;;;;0.60;0.60;;;;;;;;;;5074312;28;20175;-85